Flight Track Log - Related Links

Times and Time Zones

All times are in EST time to prevent confusion due to time zone crossing. See the VP-BLX flight status page for this flight to view local times or setup timezone preferences in your user account.

Time Position Orientation Groundspeed Altitude Reporting Facility
EST Latitude Longitude Course Direction KTS MPH feet Rate Location/Type
Fri 04:00:50 AM 55.9680 37.3900 239° Southwest 164 189 800  Level FlightAware ADS-B
Fri 04:01:22 AM 55.9620 37.3510 255° West 162 186 2,100 1,583 Climbing FlightAware ADS-B
Fri 04:02:02 AM 55.9810 37.3130 312° West 192 221 2,700 1,105 Climbing FlightAware ADS-B
Fri 04:02:38 AM 56.0140 37.2800 331° Northwest 232 267 3,500 1,781 Climbing FlightAware ADS-B
Fri 04:03:06 AM 56.0390 37.2540 330° Northwest 240 276 4,600 2,400 Climbing FlightAware ADS-B
Fri 04:03:38 AM 56.0730 37.2190 330° Northwest 251 289 5,900 2,700 Climbing FlightAware ADS-B
Fri 04:04:06 AM 56.1020 37.1900 331° Northwest 251 289 7,300 2,625 Climbing FlightAware ADS-B
Fri 04:04:42 AM 56.1380 37.1610 336° Northwest 260 299 8,700 2,500 Climbing FlightAware ADS-B
Fri 04:05:18 AM 56.1810 37.1940 23° Northeast 274 315 10,300 1,969 Climbing FlightAware ADS-B
Fri 04:05:46 AM 56.2130 37.2250 28° Northeast 298 343 10,800 1,841 Climbing FlightAware ADS-B
Fri 04:06:46 AM 56.2900 37.2940 26° Northeast 315 362 13,000 2,177 Climbing FlightAware ADS-B
Fri 04:07:50 AM 56.3740 37.3720 27° Northeast 328 377 15,300 2,111 Climbing FlightAware ADS-B
Fri 04:08:34 AM 56.4330 37.4270 27° Northeast 339 390 16,800 2,025 Climbing FlightAware ADS-B
Fri 04:09:10 AM 56.4850 37.4740 27° Northeast 343 395 18,000 1,962 Climbing FlightAware ADS-B
Fri 04:10:18 AM 56.5830 37.5650 27° Northeast 352 405 20,200 1,800 Climbing FlightAware ADS-B
Fri 04:11:30 AM 56.6880 37.6640 27° Northeast 361 415 22,200 1,650 Climbing FlightAware ADS-B
Fri 04:11:38 AM 56.6970 37.6720 26° Northeast 363 418 22,400 1,500 Climbing FlightAware ADS-B
Fri 04:12:50 AM 56.8080 37.7770 27° Northeast 376 433 24,200 1,448 Climbing FlightAware ADS-B
Fri 04:13:34 AM 56.8770 37.8420 27° Northeast 382 440 25,200 1,421 Climbing FlightAware ADS-B
Fri 04:14:06 AM 56.9280 37.8930 29° Northeast 388 447 26,000 1,292 Climbing FlightAware ADS-B
Fri 04:14:39 AM 56.9730 37.9520 36° Northeast 397 457 26,600 882 Climbing FlightAware ADS-B
Fri 04:15:14 AM 57.0240 38.0360 42° Northeast 415 478 27,000 960 Climbing FlightAware ADS-B
Fri 04:15:54 AM 57.0740 38.1470 50° Northeast 428 493 27,800 1,105 Climbing FlightAware ADS-B
Fri 04:16:30 AM 57.1110 38.2620 59° Northeast 439 505 28,400 913 Climbing FlightAware ADS-B
Fri 04:17:26 AM 57.1630 38.4500 63° Northeast 449 517 29,200 886 Climbing FlightAware ADS-B
Fri 04:17:58 AM 57.1930 38.5610 63° Northeast 453 521 29,700 1,188 Climbing FlightAware ADS-B
Fri 04:19:02 AM 57.2520 38.7800 63° Northeast 462 532 31,100 1,320 Climbing FlightAware ADS-B
Fri 04:19:38 AM 57.2870 38.9100 63° Northeast 464 534 31,900 1,406 Climbing FlightAware ADS-B
Fri 04:20:06 AM 57.3130 39.0090 64° Northeast 463 533 32,600 1,031 Climbing FlightAware ADS-B
Fri 04:20:42 AM 57.3470 39.1380 64° Northeast 468 539 33,000 353 Climbing FlightAware ADS-B
Fri 04:21:14 AM 57.3760 39.2530 65° Northeast 471 542 33,000  Level FlightAware ADS-B
Fri 04:21:46 AM 57.4030 39.3750 68° East 468 539 33,000  Level FlightAware ADS-B
Fri 04:22:58 AM 57.4610 39.6350 67° East 467 537 33,000  Level FlightAware ADS-B
Fri 04:23:34 AM 57.4920 39.7720 67° East 467 537 33,000  Level FlightAware ADS-B
Fri 04:24:10 AM 57.5210 39.9040 68° East 466 536 33,000  Level FlightAware ADS-B
Fri 04:24:46 AM 57.5510 40.0390 67° East 465 535 33,000  Level FlightAware ADS-B
Fri 04:25:34 AM 57.5900 40.2170 68° East 462 532 33,000  Level FlightAware ADS-B
Fri 04:26:06 AM 57.6160 40.3340 67° East 462 532 33,000  Level FlightAware ADS-B
Fri 04:26:42 AM 57.6440 40.4630 68° East 463 533 33,000  Level FlightAware ADS-B
Fri 04:27:18 AM 57.6730 40.5990 68° East 465 535 33,000  Level FlightAware ADS-B
Fri 04:27:58 AM 57.7050 40.7470 68° East 466 536 33,000  Level FlightAware ADS-B
Fri 04:28:30 AM 57.7300 40.8620 68° East 468 539 33,000  Level FlightAware ADS-B
Fri 04:29:16 AM 57.7650 41.0290 68° East 468 539 33,000  Level FlightAware ADS-B
Fri 04:30:13 AM 57.8170 41.2540 66° East 466 536 33,000  Level FlightAware ADS-B
Fri 04:30:52 AM 57.8500 41.3960 66° East 463 533 33,000  Level FlightAware ADS-B
Fri 04:31:27 AM 57.8800 41.5260 66° East 463 533 33,000  Level FlightAware ADS-B
Fri 04:32:12 AM 57.9170 41.6910 67° East 462 532 33,000  Level FlightAware ADS-B
Fri 04:32:59 AM 57.9570 41.8680 67° East 463 533 33,000  Level FlightAware ADS-B
Fri 04:33:36 AM 57.9870 42.0050 68° East 463 533 33,000  Level FlightAware ADS-B
Fri 04:34:16 AM 58.0200 42.1510 67° East 460 529 33,000  Level FlightAware ADS-B
Fri 04:34:39 AM 58.0390 42.2380 68° East 460 529 33,000  Level FlightAware ADS-B
Fri 04:35:14 AM 58.0670 42.3680 68° East 459 528 33,000  Level FlightAware ADS-B
Fri 04:35:51 AM 58.0960 42.4990 67° East 459 528 33,000  Level FlightAware ADS-B
Fri 04:36:32 AM 58.1300 42.6540 67° East 460 529 33,000  Level FlightAware ADS-B
Fri 04:37:08 AM 58.1590 42.7920 68° East 459 528 33,000  Level FlightAware ADS-B
Fri 04:37:49 AM 58.1920 42.9430 67° East 458 527 33,000  Level FlightAware ADS-B
Fri 04:38:24 AM 58.2190 43.0720 68° East 456 525 33,000  Level FlightAware ADS-B
Fri 04:39:05 AM 58.2510 43.2230 68° East 455 524 33,000  Level FlightAware ADS-B
Fri 04:39:42 AM 58.2800 43.3620 68° East 455 524 33,000  Level FlightAware ADS-B
Fri 04:40:27 AM 58.3130 43.5190 68° East 455 524 33,000  Level FlightAware ADS-B
Fri 04:41:02 AM 58.3410 43.6570 69° East 456 525 33,000  Level FlightAware ADS-B
Fri 04:41:45 AM 58.3730 43.8130 69° East 457 526 33,000  Level FlightAware ADS-B
Fri 04:42:30 AM 58.4020 43.9530 68° East 457 526 33,000  Level FlightAware ADS-B
Fri 04:43:02 AM 58.4260 44.0760 70° East 458 527 33,000  Level FlightAware ADS-B
Fri 04:44:00 AM 58.4710 44.3000 69° East 461 531 33,000  Level FlightAware ADS-B
Fri 04:44:38 AM 58.4990 44.4420 69° East 463 533 33,000  Level FlightAware ADS-B
Fri 04:45:13 AM 58.5260 44.5750 69° East 465 535 33,000  Level FlightAware ADS-B
Fri 04:45:49 AM 58.5530 44.7170 70° East 465 535 33,000  Level FlightAware ADS-B
Fri 04:46:27 AM 58.5810 44.8580 69° East 465 535 33,000  Level FlightAware ADS-B
Fri 04:47:12 AM 58.6140 45.0320 70° East 465 535 33,000  Level FlightAware ADS-B
Fri 04:47:51 AM 58.6480 45.2100 70° East 464 534 33,000  Level FlightAware ADS-B
Fri 04:48:28 AM 58.6750 45.3540 70° East 464 534 33,000  Level FlightAware ADS-B
Fri 04:49:03 AM 58.7010 45.4860 69° East 465 535 33,000  Level FlightAware ADS-B
Fri 04:49:44 AM 58.7310 45.6460 70° East 464 534 33,000  Level FlightAware ADS-B
Fri 04:50:17 AM 58.7560 45.7800 70° East 463 533 33,000  Level FlightAware ADS-B
Fri 04:50:56 AM 58.7840 45.9300 70° East 462 532 33,000  Level FlightAware ADS-B
Fri 04:51:29 AM 58.8070 46.0530 70° East 462 532 33,000  Level FlightAware ADS-B
Fri 04:52:29 AM 58.8510 46.2930 70° East 468 539 33,000  Level FlightAware ADS-B
Fri 04:52:56 AM 58.8700 46.3970 70° East 469 540 33,000  Level FlightAware ADS-B
Fri 04:53:33 AM 58.8960 46.5410 71° East 469 540 33,000  Level FlightAware ADS-B
Fri 04:54:16 AM 58.9270 46.7170 71° East 470 541 33,000  Level FlightAware ADS-B
Fri 04:54:49 AM 58.9490 46.8410 71° East 471 542 33,000  Level FlightAware ADS-B
Fri 04:55:18 AM 58.9700 46.9610 71° East 473 544 33,000  Level FlightAware ADS-B
Fri 04:56:00 AM 59.0000 47.1300 71° East 472 543 33,000  Level FlightAware ADS-B
Fri 04:56:29 AM 59.0200 47.2430 71° East 473 544 33,000  Level FlightAware ADS-B
Fri 04:57:12 AM 59.0490 47.4150 72° East 474 545 33,000  Level FlightAware ADS-B
Fri 04:57:55 AM 59.0790 47.5880 71° East 475 547 33,000  Level FlightAware ADS-B
Fri 04:58:38 AM 59.1070 47.7570 72° East 474 545 33,000  Level FlightAware ADS-B
Fri 04:59:05 AM 59.1240 47.8550 71° East 475 547 33,000  Level FlightAware ADS-B
Fri 04:59:57 AM 59.1550 48.0340 71° East 475 547 33,000  Level FlightAware ADS-B
Fri 05:00:33 AM 59.1770 48.1580 71° East 475 547 33,000  Level FlightAware ADS-B
Fri 05:01:10 AM 59.2000 48.2860 71° East 475 547 33,000  Level FlightAware ADS-B
Fri 05:01:46 AM 59.2220 48.4100 71° East 475 547 33,000  Level FlightAware ADS-B
Fri 05:02:23 AM 59.2440 48.5380 71° East 475 547 33,000  Level FlightAware ADS-B
Fri 05:02:59 AM 59.2660 48.6620 71° East 475 547 33,000  Level FlightAware ADS-B
Fri 05:03:36 AM 59.2880 48.7900 71° East 475 547 33,000  Level FlightAware ADS-B
Fri 05:04:12 AM 59.3100 48.9150 71° East 475 547 33,000  Level FlightAware ADS-B
Fri 05:05:01 AM 59.3400 49.0840 71° East 475 547 33,000  Level FlightAware ADS-B
Fri 05:05:37 AM 59.3620 49.2090 71° East 475 547 33,000  Level FlightAware ADS-B
Fri 05:06:26 AM 59.3920 49.3790 71° East 475 547 33,000  Level FlightAware ADS-B
Fri 05:07:14 AM 59.4210 49.5460 71° East 475 547 33,000  Level FlightAware ADS-B
Fri 05:07:50 AM 59.4430 49.6710 71° East 475 547 33,000  Level FlightAware ADS-B
Fri 05:08:26 AM 59.4650 49.7960 71° East 475 547 33,000  Level FlightAware ADS-B
Fri 05:09:00 AM 59.4850 49.9140 71° East 475 547 33,000  Level FlightAware ADS-B
Fri 05:12:00 AM 59.5150 50.5811 85° East  Level Estimated
Fri 05:13:00 AM 59.5243 50.8037 85° East  Level Estimated
Fri 05:14:00 AM 59.5332 51.0265 85° East  Level Estimated
Fri 05:15:00 AM 59.5417 51.2494 86° East  Level Estimated
Fri 05:16:00 AM 59.5498 51.4723 86° East  Level Estimated
Fri 05:17:00 AM 59.5575 51.6954 86° East  Level Estimated
Fri 05:18:00 AM 59.5649 51.9186 86° East  Level Estimated
Fri 05:19:00 AM 59.5719 52.1418 86° East  Level Estimated
Fri 05:20:00 AM 59.5785 52.3652 87° East  Level Estimated
Fri 05:21:00 AM 59.5847 52.5887 87° East  Level Estimated
Fri 05:22:00 AM 59.5905 52.8122 87° East  Level Estimated
Fri 05:23:00 AM 59.5960 53.0358 87° East  Level Estimated
Fri 05:24:00 AM 59.6011 53.2595 87° East  Level Estimated
Fri 05:25:00 AM 59.6058 53.4832 88° East  Level Estimated
Fri 05:26:00 AM 59.6101 53.7070 88° East  Level Estimated
Fri 05:27:00 AM 59.6140 53.9309 88° East  Level Estimated
Fri 05:28:00 AM 59.6176 54.1548 88° East  Level Estimated
Fri 05:29:00 AM 59.6208 54.3787 88° East  Level Estimated
Fri 05:30:00 AM 59.6236 54.6027 88° East  Level Estimated
Fri 05:31:00 AM 59.6260 54.8267 89° East  Level Estimated
Fri 05:32:00 AM 59.6280 55.0508 89° East  Level Estimated
Fri 05:33:00 AM 59.6296 55.2748 89° East  Level Estimated
Fri 05:34:00 AM 59.6309 55.4989 89° East  Level Estimated
Fri 05:35:00 AM 59.6318 55.7230 89° East  Level Estimated
Fri 05:36:00 AM 59.6323 55.9472 90° East  Level Estimated
Fri 05:37:00 AM 59.6324 56.1713 90° East  Level Estimated
Fri 05:38:00 AM 59.6321 56.3954 90° East  Level Estimated
Fri 05:39:00 AM 59.6315 56.6195 90° East  Level Estimated
Fri 05:40:00 AM 59.6304 56.8436 90° East  Level Estimated
Fri 05:41:00 AM 59.6290 57.0677 91° East  Level Estimated
Fri 05:42:00 AM 59.6272 57.2918 91° East  Level Estimated
Fri 05:43:00 AM 59.6250 57.5158 91° East  Level Estimated
Fri 05:44:00 AM 59.6225 57.7398 91° East  Level Estimated
Fri 05:45:00 AM 59.6195 57.9638 91° East  Level Estimated
Fri 05:46:00 AM 59.6162 58.1877 92° East  Level Estimated
Fri 05:47:00 AM 59.6125 58.4116 92° East  Level Estimated
Fri 05:48:00 AM 59.6084 58.6354 92° East  Level Estimated
Fri 05:49:00 AM 59.6039 58.8592 92° East  Level Estimated
Fri 05:49:14 AM 60.1200 59.8215 92° East 492 566 33,000  Level FlightAware ADS-B (USTR / TJM)
Fri 05:50:00 AM 59.5991 59.0829 92° East  Level Estimated
Fri 05:51:00 AM 60.1060 60.2222 94° East  Level Estimated
Fri 05:52:00 AM 60.0976 60.4489 94° East  Level Estimated
Fri 05:53:00 AM 60.0887 60.6755 94° East  Level Estimated
Fri 05:54:00 AM 60.0795 60.9019 95° East  Level Estimated
Fri 05:55:00 AM 60.0699 61.1282 95° East  Level Estimated
Fri 05:56:00 AM 60.0599 61.3544 95° East  Level Estimated
Fri 05:57:00 AM 60.0495 61.5804 95° East  Level Estimated
Fri 05:57:46 AM 60.1354 63.4547 95° East 491 565 33,000  Level FlightAware ADS-B (USTR / TJM)
Fri 05:58:00 AM 60.0387 61.8063 95° East  Level Estimated
Fri 05:58:44 AM 60.1350 63.4750 92° East 490 564 33,000  Level FlightAware ADS-B
Fri 05:59:24 AM 60.1340 63.6300 91° East 490 564 33,000  Level FlightAware ADS-B
Fri 06:00:16 AM 60.1300 63.9090 92° East 492 566 33,000  Level FlightAware ADS-B
Fri 06:00:41 AM 60.1290 64.0060 91° East 492 566 33,000  Level FlightAware ADS-B
Fri 06:01:18 AM 60.1280 64.1500 91° East 492 566 33,000  Level FlightAware ADS-B
Fri 06:01:54 AM 60.1270 64.2900 91° East 492 566 33,000  Level FlightAware ADS-B
Fri 06:02:45 AM 60.1210 64.5930 92° East 493 567 33,000  Level FlightAware ADS-B
Fri 06:03:46 AM 60.1190 64.8300 91° East 493 567 33,000  Level FlightAware ADS-B
Fri 06:04:46 AM 60.1170 65.0640 91° East 493 567 33,000  Level FlightAware ADS-B
Fri 06:05:06 AM 60.0885 65.4629 98° East 489 563 33,000  Level FlightAware ADS-B (USTR / TJM)
Fri 06:06:15 AM 60.0840 65.5510 96° East 489 563 33,000  Level FlightAware ADS-B
Fri 06:06:35 AM 60.0693 65.8566 95° East 489 563 33,000  Level FlightAware ADS-B (USTR / TJM)
Fri 06:07:06 AM 60.0760 65.7470 277° West 489 563 33,000  Level FlightAware ADS-B
Fri 06:07:13 AM 60.0608 66.0214 96° East 489 563 33,000  Level FlightAware ADS-B (USTR / TJM)
Fri 06:08:11 AM 60.0580 66.0780 96° East 489 563 33,000  Level FlightAware ADS-B
Fri 06:08:16 AM 60.0474 66.2759 96° East 491 565 33,000  Level FlightAware ADS-B (USTR / TJM)
Fri 06:08:52 AM 60.0369 66.4683 96° East 494 568 33,000  Level FlightAware ADS-B (USTR / TJM)
Fri 06:09:26 AM 60.0370 66.4660 275° West 493 567 33,000  Level FlightAware ADS-B
Fri 06:09:27 AM 60.0265 66.6556 96° East 494 568 33,000  Level FlightAware ADS-B (USTR / TJM)
Fri 06:10:02 AM 60.0290 66.6190 278° West 494 568 33,000  Level FlightAware ADS-B
Fri 06:10:38 AM 60.0180 66.7950 97° East 493 567 33,000  Level FlightAware ADS-B
Fri 06:10:56 AM 60.0140 66.8740 96° East 492 566 33,000  Level FlightAware ADS-B
Fri 06:11:36 AM 59.9921 67.2348 97° East 494 568 33,000  Level FlightAware ADS-B (USTR / TJM)
Fri 06:12:32 AM 59.9900 67.2680 97° East 494 568 33,000  Level FlightAware ADS-B
Fri 06:13:13 AM 59.9800 67.4290 97° East 494 568 33,000  Level FlightAware ADS-B
Fri 06:13:46 AM 59.9830 67.3750 276° West 495 570 33,000  Level FlightAware ADS-B
Fri 06:15:28 AM 59.9370 68.0880 101° East 496 571 33,000  Level FlightAware ADS-B
Fri 06:16:00 AM 59.9346 67.8711 101° East  Level Estimated
Fri 06:16:32 AM 59.9180 68.3640 98° East 495 570 33,000  Level FlightAware ADS-B
Fri 06:17:36 AM 59.9000 68.6100 98° East 495 570 33,000  Level FlightAware ADS-B
Fri 06:18:08 AM 59.9180 68.3640 278° West 495 570 33,000  Level FlightAware ADS-B
Fri 06:18:36 AM 59.9100 68.4720 98° East 495 570 33,000  Level FlightAware ADS-B
Fri 06:18:57 AM 59.9180 68.3640 278° West 495 570 33,000  Level FlightAware ADS-B
Fri 06:19:55 AM 59.8342 69.4752 98° East 492 566 33,000  Level FlightAware ADS-B (USTR / TJM)
Fri 06:20:46 AM 59.8340 69.4750 207° Southwest 33,000  Level FlightAware ADS-B
Fri 06:21:20 AM 59.8240 69.6080 98° East 491 565 33,000  Level FlightAware ADS-B
Fri 06:22:14 AM 59.7990 69.9070 99° East 488 562 33,000  Level FlightAware ADS-B
Fri 06:23:04 AM 59.7840 70.0950 99° East 488 562 33,000  Level FlightAware ADS-B
Fri 06:23:17 AM 59.8233 69.6107 279° West 487 560 33,000  Level FlightAware ADS-B (USTR / TJM)
Fri 06:23:52 AM 59.7700 70.2760 99° East 488 562 33,000  Level FlightAware ADS-B
Fri 06:24:22 AM 59.7560 70.4130 101° East 486 559 33,000  Level FlightAware ADS-B
Fri 06:24:53 AM 59.7390 70.6120 100° East 611 703 33,000  Level FlightAware ADS-B
Fri 06:25:33 AM 59.7240 70.7760 100° East 485 558 33,000  Level FlightAware ADS-B
Fri 06:26:08 AM 59.7110 70.9280 100° East 485 558 33,000  Level FlightAware ADS-B
Fri 06:27:02 AM 59.6890 71.1680 100° East 487 560 33,000  Level FlightAware ADS-B
Fri 06:27:37 AM 59.6740 71.3200 101° East 486 559 33,000  Level FlightAware ADS-B
Fri 06:28:21 AM 59.6570 71.5100 100° East 486 559 33,000  Level FlightAware ADS-B
Fri 06:28:56 AM 59.6400 71.6830 101° East 489 563 33,000  Level FlightAware ADS-B
Fri 06:29:29 AM 59.6290 71.7990 101° East 489 563 33,000  Level FlightAware ADS-B
Fri 06:30:05 AM 59.6120 71.9630 102° East 488 562 33,000  Level FlightAware ADS-B
Fri 06:30:50 AM 59.5920 72.1690 101° East 488 562 33,000  Level FlightAware ADS-B
Fri 06:31:25 AM 59.5780 72.3070 101° East 490 564 33,000  Level FlightAware ADS-B
Fri 06:32:05 AM 59.5570 72.5030 102° East 491 565 33,000  Level FlightAware ADS-B
Fri 06:32:35 AM 59.5440 72.6340 101° East 491 565 33,000  Level FlightAware ADS-B
Fri 06:33:20 AM 59.5230 72.8280 102° East 489 563 33,000  Level FlightAware ADS-B
Fri 06:34:05 AM 59.5020 73.0250 102° East 491 565 33,000  Level FlightAware ADS-B
Fri 06:34:25 AM 59.4950 73.0920 102° East 491 565 33,000  Level FlightAware ADS-B
Fri 06:35:05 AM 59.4740 73.2830 102° East 493 567 33,000  Level FlightAware ADS-B
Fri 06:35:45 AM 59.4550 73.4550 102° East 494 568 33,000  Level FlightAware ADS-B
Fri 06:36:31 AM 59.4330 73.6480 103° East 492 566 33,000  Level FlightAware ADS-B
Fri 06:37:01 AM 59.4180 73.7800 103° East 492 566 33,000  Level FlightAware ADS-B
Fri 06:37:35 AM 59.4000 73.9360 103° East 491 565 33,000  Level FlightAware ADS-B
Fri 06:38:20 AM 59.3780 74.1280 103° East 490 564 33,000  Level FlightAware ADS-B
Fri 06:38:55 AM 59.3610 74.2700 103° East 491 565 33,000  Level FlightAware ADS-B
Fri 06:39:35 AM 59.3320 74.4420 108° East 487 560 33,000  Level FlightAware ADS-B
Fri 06:40:15 AM 59.2920 74.5980 117° Southeast 483 556 33,000  Level FlightAware ADS-B
Fri 06:40:45 AM 59.2580 74.7010 123° Southeast 479 551 33,000  Level FlightAware ADS-B
Fri 06:41:20 AM 59.2120 74.8330 124° Southeast 481 554 33,000  Level FlightAware ADS-B
Fri 06:42:05 AM 59.1560 74.9950 124° Southeast 482 555 33,000  Level FlightAware ADS-B
Fri 06:42:35 AM 59.1150 75.1060 126° Southeast 480 552 33,000  Level FlightAware ADS-B
Fri 06:43:10 AM 59.0720 75.2260 125° Southeast 480 552 33,000  Level FlightAware ADS-B
Fri 06:44:10 AM 59.0080 75.4030 125° Southeast 480 552 33,000  Level FlightAware ADS-B
Fri 06:45:22 AM 58.9300 75.6190 125° Southeast 480 552 33,000  Level FlightAware ADS-B
Fri 06:45:59 AM 58.8900 75.7300 125° Southeast 480 552 33,000  Level FlightAware ADS-B
Fri 06:47:00 AM 58.8240 75.9120 125° Southeast 480 552 33,000  Level FlightAware ADS-B
Fri 06:48:07 AM 58.6840 76.2600 128° Southeast 479 551 33,000  Level FlightAware ADS-B
Fri 06:48:52 AM 58.6250 76.4150 126° Southeast 479 551 33,000  Level FlightAware ADS-B
Fri 06:49:27 AM 58.5820 76.5380 124° Southeast 485 558 33,000  Level FlightAware ADS-B
Fri 06:50:05 AM 58.5480 76.6540 119° Southeast 486 559 33,000  Level FlightAware ADS-B
Fri 06:51:17 AM 58.4810 76.8850 119° Southeast 486 559 33,000  Level FlightAware ADS-B
Fri 06:51:42 AM 58.4580 76.9640 119° Southeast 486 559 33,000  Level FlightAware ADS-B
Fri 06:52:18 AM 58.4250 77.0790 119° Southeast 486 559 33,000  Level FlightAware ADS-B
Fri 06:52:55 AM 58.3910 77.1970 119° Southeast 486 559 33,000  Level FlightAware ADS-B
Fri 06:54:07 AM 58.3240 77.4270 119° Southeast 486 559 33,000  Level FlightAware ADS-B
Fri 06:55:07 AM 58.2680 77.6180 119° Southeast 486 559 33,000  Level FlightAware ADS-B
Fri 06:55:44 AM 58.2340 77.7350 119° Southeast 486 559 33,000  Level FlightAware ADS-B
Fri 06:56:20 AM 58.2000 77.8490 119° Southeast 486 559 33,000  Level FlightAware ADS-B
Fri 06:56:56 AM 58.1670 77.9640 119° Southeast 486 559 33,000  Level FlightAware ADS-B
Fri 06:57:32 AM 58.1340 78.0780 119° Southeast 486 559 33,000  Level FlightAware ADS-B
Fri 06:58:09 AM 58.0990 78.1950 119° Southeast 486 559 33,000  Level FlightAware ADS-B
Fri 07:00:11 AM 57.9330 78.9920 111° Southeast 488 562 33,000  Level FlightAware ADS-B
Fri 07:00:46 AM 57.8960 79.1240 118° Southeast 488 562 33,000  Level FlightAware ADS-B
Fri 07:01:21 AM 57.8600 79.2530 118° Southeast 488 562 33,000  Level FlightAware ADS-B
Fri 07:01:51 AM 57.8280 79.3650 118° Southeast 489 563 33,000  Level FlightAware ADS-B
Fri 07:02:31 AM 57.7870 79.5110 118° Southeast 488 562 33,000  Level FlightAware ADS-B
Fri 07:03:06 AM 57.7480 79.6460 118° Southeast 486 559 33,000  Level FlightAware ADS-B
Fri 07:03:46 AM 57.7060 79.7930 118° Southeast 483 556 33,000  Level FlightAware ADS-B
Fri 07:04:51 AM 57.6360 80.0290 119° Southeast 482 555 33,000  Level FlightAware ADS-B
Fri 07:05:41 AM 57.5820 80.2110 119° Southeast 482 555 33,000  Level FlightAware ADS-B
Fri 07:06:16 AM 57.5450 80.3350 119° Southeast 484 557 33,000  Level FlightAware ADS-B
Fri 07:06:51 AM 57.5060 80.4630 120° Southeast 484 557 33,000  Level FlightAware ADS-B
Fri 07:07:26 AM 57.4670 80.5900 120° Southeast 486 559 33,000  Level FlightAware ADS-B
Fri 07:08:16 AM 57.4120 80.7720 119° Southeast 486 559 33,000  Level FlightAware ADS-B
Fri 07:08:52 AM 57.3740 80.8970 119° Southeast 485 558 33,000  Level FlightAware ADS-B
Fri 07:09:37 AM 57.3250 81.0540 120° Southeast 485 558 33,000  Level FlightAware ADS-B
Fri 07:10:36 AM 57.2600 81.2650 120° Southeast 484 557 33,000  Level FlightAware ADS-B
Fri 07:11:07 AM 57.2230 81.3810 120° Southeast 483 556 33,000  Level FlightAware ADS-B
Fri 07:12:00 AM 57.1640 81.5700 120° Southeast 482 555 33,000  Level FlightAware ADS-B
Fri 07:12:39 AM 57.1190 81.7110 120° Southeast 483 556 33,000  Level FlightAware ADS-B
Fri 07:13:20 AM 57.0730 81.8530 121° Southeast 485 558 33,000  Level FlightAware ADS-B
Fri 07:14:19 AM 57.0050 82.0670 120° Southeast 484 557 33,000  Level FlightAware ADS-B
Fri 07:14:59 AM 56.9640 82.2100 118° Southeast 484 557 33,000  Level FlightAware ADS-B
Fri 07:15:44 AM 56.9180 82.3760 117° Southeast 484 557 33,000  Level FlightAware ADS-B
Fri 07:16:29 AM 56.8720 82.5400 117° Southeast 485 558 33,000  Level FlightAware ADS-B
Fri 07:17:04 AM 56.8360 82.6650 118° Southeast 486 559 33,000  Level FlightAware ADS-B
Fri 07:17:54 AM 56.7840 82.8480 117° Southeast 485 558 33,000  Level FlightAware ADS-B
Fri 07:18:40 AM 56.7370 83.0090 118° Southeast 485 558 33,000  Level FlightAware ADS-B
Fri 07:19:35 AM 56.6800 83.2060 118° Southeast 484 557 33,000  Level FlightAware ADS-B
Fri 07:20:04 AM 56.6490 83.3110 118° Southeast 484 557 33,000  Level FlightAware ADS-B
Fri 07:20:54 AM 56.5960 83.4920 118° Southeast 484 557 33,000  Level FlightAware ADS-B
Fri 07:22:00 AM 56.5280 83.7170 119° Southeast 483 556 33,000  Level FlightAware ADS-B
Fri 07:23:04 AM 56.4580 83.9530 118° Southeast 484 557 33,000  Level FlightAware ADS-B
Fri 07:24:05 AM 56.3930 84.1670 119° Southeast 484 557 33,000  Level FlightAware ADS-B
Fri 07:24:55 AM 56.3390 84.3430 119° Southeast 485 558 33,000  Level FlightAware ADS-B
Fri 07:25:34 AM 56.2960 84.4830 119° Southeast 485 558 33,000  Level FlightAware ADS-B
Fri 07:26:35 AM 56.2300 84.6940 119° Southeast 483 556 33,000  Level FlightAware ADS-B
Fri 07:27:19 AM 56.1840 84.8420 119° Southeast 484 557 33,000  Level FlightAware ADS-B
Fri 07:27:59 AM 56.1400 84.9820 119° Southeast 486 559 33,000  Level FlightAware ADS-B
Fri 07:28:44 AM 56.0900 85.1390 120° Southeast 486 559 33,000  Level FlightAware ADS-B
Fri 07:29:46 AM 56.0230 85.3500 120° Southeast 486 559 33,000  Level FlightAware ADS-B
Fri 07:30:07 AM 55.9980 85.4280 120° Southeast 486 559 33,000  Level FlightAware ADS-B
Fri 07:31:05 AM 55.9310 85.6340 120° Southeast 483 556 33,000  Level FlightAware ADS-B
Fri 07:31:40 AM 55.8920 85.7470 122° Southeast 483 556 33,000  Level FlightAware ADS-B
Fri 07:32:21 AM 55.8420 85.8960 121° Southeast 484 557 33,000  Level FlightAware ADS-B
Fri 07:33:01 AM 55.7950 86.0310 122° Southeast 485 558 33,000  Level FlightAware ADS-B
Fri 07:33:36 AM 55.7540 86.1510 121° Southeast 486 559 33,000  Level FlightAware ADS-B
Fri 07:34:26 AM 55.6970 86.3180 121° Southeast 484 557 33,000  Level FlightAware ADS-B
Fri 07:34:56 AM 55.6610 86.4190 122° Southeast 483 556 33,000  Level FlightAware ADS-B
Fri 07:35:43 AM 55.6080 86.5720 121° Southeast 484 557 33,000  Level FlightAware ADS-B
Fri 07:36:01 AM 55.5850 86.6380 122° Southeast 484 557 33,000  Level FlightAware ADS-B
Fri 07:36:51 AM 55.5260 86.8040 122° Southeast 485 558 33,000  Level FlightAware ADS-B
Fri 07:37:31 AM 55.4810 86.9330 122° Southeast 484 557 33,000  Level FlightAware ADS-B
Fri 07:38:21 AM 55.4190 87.1060 122° Southeast 485 558 33,000  Level FlightAware ADS-B
Fri 07:38:57 AM 55.3770 87.2220 122° Southeast 486 559 33,000  Level FlightAware ADS-B
Fri 07:39:43 AM 55.3230 87.3740 122° Southeast 486 559 33,000  Level FlightAware ADS-B
Fri 07:40:27 AM 55.2700 87.5190 123° Southeast 485 558 33,000  Level FlightAware ADS-B
Fri 07:40:52 AM 55.2400 87.6020 122° Southeast 485 558 33,000  Level FlightAware ADS-B
Fri 07:41:27 AM 55.1960 87.7200 123° Southeast 485 558 33,000  Level FlightAware ADS-B
Fri 07:41:57 AM 55.1590 87.8210 123° Southeast 485 558 33,000  Level FlightAware ADS-B
Fri 07:42:47 AM 55.0990 87.9830 123° Southeast 484 557 33,000  Level FlightAware ADS-B
Fri 07:43:27 AM 55.0510 88.1130 123° Southeast 484 557 33,000  Level FlightAware ADS-B
Fri 07:44:37 AM 54.9670 88.3350 123° Southeast 483 556 33,000  Level FlightAware ADS-B
Fri 07:45:17 AM 54.9160 88.4710 123° Southeast 480 552 33,000  Level FlightAware ADS-B
Fri 07:45:57 AM 54.8660 88.6000 124° Southeast 480 552 33,000  Level FlightAware ADS-B
Fri 07:46:42 AM 54.8120 88.7440 123° Southeast 481 554 33,000  Level FlightAware ADS-B
Fri 07:47:12 AM 54.7780 88.8310 124° Southeast 479 551 33,000  Level FlightAware ADS-B
Fri 07:47:54 AM 54.7230 88.9740 124° Southeast 480 552 33,000  Level FlightAware ADS-B
Fri 07:48:39 AM 54.6670 89.1190 124° Southeast 482 555 33,000  Level FlightAware ADS-B
Fri 07:49:14 AM 54.6240 89.2300 124° Southeast 484 557 33,000  Level FlightAware ADS-B
Fri 07:49:54 AM 54.5740 89.3560 124° Southeast 483 556 33,000  Level FlightAware ADS-B
Fri 07:50:29 AM 54.5300 89.4690 124° Southeast 483 556 33,000  Level FlightAware ADS-B
Fri 07:51:04 AM 54.4880 89.5740 125° Southeast 484 557 33,000  Level FlightAware ADS-B
Fri 07:51:34 AM 54.4490 89.6740 124° Southeast 483 556 33,000  Level FlightAware ADS-B
Fri 07:52:19 AM 54.3920 89.8160 125° Southeast 484 557 33,000  Level FlightAware ADS-B
Fri 07:52:59 AM 54.3430 89.9380 125° Southeast 486 559 33,000  Level FlightAware ADS-B
Fri 07:53:29 AM 54.3030 90.0370 125° Southeast 489 563 33,000  Level FlightAware ADS-B
Fri 07:54:14 AM 54.2490 90.1710 125° Southeast 487 560 33,000  Level FlightAware ADS-B
Fri 07:55:19 AM 54.1650 90.3790 125° Southeast 488 562 33,000  Level FlightAware ADS-B
Fri 07:55:44 AM 54.1310 90.4630 125° Southeast 489 563 33,000  Level FlightAware ADS-B
Fri 07:56:20 AM 54.0840 90.5750 126° Southeast 489 563 33,000  Level FlightAware ADS-B
Fri 07:56:59 AM 54.0330 90.6990 125° Southeast 490 564 33,000  Level FlightAware ADS-B
Fri 07:57:39 AM 53.9800 90.8270 125° Southeast 490 564 33,000  Level FlightAware ADS-B
Fri 07:58:49 AM 53.8890 91.0460 125° Southeast 493 567 33,000  Level FlightAware ADS-B
Fri 07:59:34 AM 53.8290 91.1880 126° Southeast 493 567 33,000  Level FlightAware ADS-B
Fri 08:00:09 AM 53.7860 91.2880 126° Southeast 492 566 33,000  Level FlightAware ADS-B
Fri 08:00:39 AM 53.7430 91.3920 125° Southeast 493 567 33,000  Level FlightAware ADS-B
Fri 08:01:24 AM 53.6880 91.5370 123° Southeast 495 570 33,000  Level FlightAware ADS-B
Fri 08:02:25 AM 53.6140 91.7370 122° Southeast 494 568 33,000  Level FlightAware ADS-B
Fri 08:03:05 AM 53.5650 91.8660 123° Southeast 494 568 33,000  Level FlightAware ADS-B
Fri 08:03:45 AM 53.5160 91.9960 122° Southeast 493 567 33,000  Level FlightAware ADS-B
Fri 08:04:20 AM 53.4720 92.1110 123° Southeast 494 568 33,000  Level FlightAware ADS-B
Fri 08:05:36 AM 53.3850 92.3350 123° Southeast 494 568 33,000  Level FlightAware ADS-B
Fri 08:06:10 AM 53.3380 92.4590 122° Southeast 497 572 33,000  Level FlightAware ADS-B
Fri 08:06:51 AM 53.2850 92.5930 123° Southeast 496 571 33,000  Level FlightAware ADS-B
Fri 08:07:32 AM 53.2370 92.7160 123° Southeast 494 568 33,000  Level FlightAware ADS-B
Fri 08:08:09 AM 53.1890 92.8390 123° Southeast 493 567 33,000  Level FlightAware ADS-B
Fri 08:08:51 AM 53.1370 92.9710 123° Southeast 494 568 33,000  Level FlightAware ADS-B
Fri 08:09:17 AM 53.1080 93.0440 123° Southeast 494 568 33,000 74 Level FlightAware ADS-B
Fri 08:10:12 AM 53.0330 93.2330 123° Southeast 494 568 33,100 73 Climbing FlightAware ADS-B
Fri 08:10:39 AM 53.0000 93.3160 123° Southeast 494 568 33,100  Level FlightAware ADS-B
Fri 08:11:05 AM 52.9670 93.3990 123° Southeast 494 568 33,100 71 Level FlightAware ADS-B
Fri 08:12:03 AM 52.8940 93.5820 123° Southeast 494 568 33,200 -51 Climbing FlightAware ADS-B
Fri 08:13:03 AM 52.8180 93.7710 124° Southeast 490 564 33,000 -140 Descending FlightAware ADS-B
Fri 08:13:29 AM 52.7840 93.8530 124° Southeast 490 564 33,000  Level FlightAware ADS-B
Fri 08:14:27 AM 52.7110 94.0320 124° Southeast 490 564 33,000  Level FlightAware ADS-B
Fri 08:15:04 AM 52.6640 94.1460 124° Southeast 490 564 33,000  Level FlightAware ADS-B
Fri 08:15:51 AM 52.6040 94.2920 124° Southeast 490 564 33,000  Level FlightAware ADS-B
Fri 08:16:28 AM 52.5580 94.4060 124° Southeast 490 564 33,000  Level FlightAware ADS-B
Fri 08:17:05 AM 52.5110 94.5200 124° Southeast 490 564 33,000  Level FlightAware ADS-B
Fri 08:17:52 AM 52.4510 94.6660 124° Southeast 490 564 33,000  Level FlightAware ADS-B
Fri 08:18:43 AM 52.3950 94.8030 124° Southeast 490 564 33,000  Level FlightAware ADS-B
Fri 08:19:07 AM 52.3690 94.8660 124° Southeast 490 564 33,000  Level FlightAware ADS-B
Fri 08:20:07 AM 52.3040 95.0220 124° Southeast 490 564 33,000  Level FlightAware ADS-B
Fri 08:21:05 AM 52.2420 95.1740 124° Southeast 490 564 33,000  Level FlightAware ADS-B
Fri 08:22:17 AM 52.1640 95.3620 124° Southeast 490 564 33,000  Level FlightAware ADS-B
Fri 08:23:29 AM 52.0860 95.5490 124° Southeast 490 564 33,000  Level FlightAware ADS-B
Fri 08:24:29 AM 52.0220 95.7050 124° Southeast 490 564 33,000  Level FlightAware ADS-B
Fri 08:25:05 AM 51.9830 95.7980 124° Southeast 490 564 33,000  Level FlightAware ADS-B
Fri 08:25:42 AM 51.9430 95.8940 124° Southeast 490 564 33,000  Level FlightAware ADS-B
Fri 08:26:30 AM 51.8910 96.0180 124° Southeast 490 564 33,000  Level FlightAware ADS-B
Fri 08:27:06 AM 51.8530 96.1110 123° Southeast 490 564 33,000  Level FlightAware ADS-B
Fri 08:27:42 AM 51.8140 96.2040 124° Southeast 490 564 33,000  Level FlightAware ADS-B
Fri 08:27:54 AM 51.8010 96.2350 124° Southeast 490 564 33,000 -161 Level FlightAware ADS-B
Fri 08:31:00 AM 51.6144 96.7152 122° Southeast  Level Estimated
Fri 08:32:00 AM 51.5538 96.8693 122° Southeast  Level Estimated
Fri 08:33:00 AM 51.4930 97.0230 122° Southeast  Level Estimated
Fri 08:34:00 AM 51.4320 97.1762 123° Southeast  Level Estimated
Fri 08:35:00 AM 51.3708 97.3290 123° Southeast  Level Estimated
Fri 08:36:00 AM 51.3094 97.4815 123° Southeast  Level Estimated
Fri 08:37:00 AM 51.2478 97.6335 123° Southeast  Level Estimated
Fri 08:38:00 AM 51.1860 97.7851 123° Southeast  Level Estimated
Fri 08:39:00 AM 51.1240 97.9363 123° Southeast  Level Estimated
Fri 08:40:00 AM 51.0618 98.0871 123° Southeast  Level Estimated
Fri 08:41:00 AM 50.9994 98.2375 123° Southeast  Level Estimated
Fri 08:42:00 AM 50.9368 98.3875 123° Southeast  Level Estimated
Fri 08:43:00 AM 50.8741 98.5371 124° Southeast  Level Estimated
Fri 08:44:00 AM 50.8111 98.6863 124° Southeast  Level Estimated
Fri 08:45:00 AM 50.7480 98.8351 124° Southeast  Level Estimated
Fri 08:46:00 AM 50.6846 98.9834 124° Southeast  Level Estimated
Fri 08:47:00 AM 50.6211 99.1314 124° Southeast  Level Estimated
Fri 08:48:00 AM 50.5574 99.2790 124° Southeast  Level Estimated
Fri 08:49:00 AM 50.4935 99.4262 124° Southeast  Level Estimated
Fri 08:50:00 AM 50.4294 99.5730 124° Southeast  Level Estimated
Fri 08:51:00 AM 50.3651 99.7194 124° Southeast  Level Estimated
Fri 08:52:00 AM 50.3007 99.8653 125° Southeast  Level Estimated
Fri 08:53:00 AM 50.2360 100.0109 125° Southeast  Level Estimated
Fri 08:54:00 AM 50.1712 100.1561 125° Southeast  Level Estimated
Fri 08:55:00 AM 50.1063 100.3009 125° Southeast  Level Estimated
Fri 08:56:00 AM 50.0411 100.4454 125° Southeast  Level Estimated
Fri 08:57:00 AM 49.9757 100.5894 125° Southeast  Level Estimated
Fri 08:58:00 AM 49.9102 100.7330 125° Southeast  Level Estimated
Fri 08:59:00 AM 49.8445 100.8762 125° Southeast  Level Estimated
Fri 09:00:00 AM 49.7786 101.0191 125° Southeast  Level Estimated
Fri 09:01:00 AM 49.7126 101.1616 126° Southeast  Level Estimated
Fri 09:02:00 AM 49.6463 101.3036 126° Southeast  Level Estimated
Fri 09:03:00 AM 49.5799 101.4453 126° Southeast  Level Estimated
Fri 09:04:00 AM 49.5133 101.5866 126° Southeast  Level Estimated
Fri 09:05:00 AM 49.4466 101.7275 126° Southeast  Level Estimated
Fri 09:06:00 AM 49.3797 101.8681 126° Southeast  Level Estimated
Fri 09:07:00 AM 49.3126 102.0082 126° Southeast  Level Estimated
Fri 09:08:00 AM 49.2453 102.1480 126° Southeast  Level Estimated
Fri 09:09:00 AM 49.1779 102.2874 126° Southeast  Level Estimated
Fri 09:10:00 AM 49.1103 102.4264 127° Southeast  Level Estimated
Fri 09:11:00 AM 49.0425 102.5650 127° Southeast  Level Estimated
Fri 09:12:00 AM 48.9746 102.7033 127° Southeast  Level Estimated
Fri 09:13:00 AM 48.9065 102.8411 127° Southeast  Level Estimated
Fri 09:14:00 AM 48.8383 102.9786 127° Southeast  Level Estimated
Fri 09:15:00 AM 48.7699 103.1158 127° Southeast  Level Estimated
Fri 09:16:00 AM 48.7013 103.2525 127° Southeast  Level Estimated
Fri 09:17:00 AM 48.6325 103.3889 127° Southeast  Level Estimated
Fri 09:18:00 AM 48.5636 103.5249 127° Southeast  Level Estimated
Fri 09:19:00 AM 48.4946 103.6605 128° Southeast  Level Estimated
Fri 09:20:00 AM 48.4254 103.7958 128° Southeast  Level Estimated
Fri 09:21:00 AM 48.3560 103.9307 128° Southeast  Level Estimated
Fri 09:22:00 AM 48.2864 104.0652 128° Southeast  Level Estimated
Fri 09:23:00 AM 48.2167 104.1994 128° Southeast  Level Estimated
Fri 09:24:00 AM 48.1469 104.3332 128° Southeast  Level Estimated
Fri 09:25:00 AM 48.0769 104.4667 128° Southeast  Level Estimated
Fri 09:26:00 AM 48.0067 104.5997 128° Southeast  Level Estimated
Fri 09:27:00 AM 47.9364 104.7324 128° Southeast  Level Estimated
Fri 09:28:00 AM 47.8660 104.8648 128° Southeast  Level Estimated
Fri 09:29:00 AM 47.7953 104.9968 129° Southeast  Level Estimated
Fri 09:30:00 AM 47.7246 105.1284 129° Southeast  Level Estimated
Fri 09:31:00 AM 47.6537 105.2597 129° Southeast  Level Estimated
Fri 09:32:00 AM 47.5826 105.3906 129° Southeast  Level Estimated
Fri 09:33:00 AM 47.5114 105.5211 129° Southeast  Level Estimated
Fri 09:34:00 AM 47.4400 105.6514 129° Southeast  Level Estimated
Fri 09:35:00 AM 47.3685 105.7812 129° Southeast  Level Estimated
Fri 09:36:00 AM 47.2969 105.9107 129° Southeast  Level Estimated
Fri 09:37:00 AM 47.2251 106.0399 129° Southeast  Level Estimated
Fri 09:38:00 AM 47.1531 106.1687 129° Southeast  Level Estimated
Fri 09:39:00 AM 47.0810 106.2971 129° Southeast  Level Estimated
Fri 09:40:00 AM 47.0088 106.4252 130° Southeast  Level Estimated
Fri 09:41:00 AM 46.9364 106.5530 130° Southeast  Level Estimated
Fri 09:42:00 AM 46.8639 106.6804 130° Southeast  Level Estimated
Fri 09:43:00 AM 46.7913 106.8075 130° Southeast  Level Estimated
Fri 09:44:00 AM 46.7185 106.9342 130° Southeast  Level Estimated
Fri 09:45:00 AM 46.6455 107.0606 130° Southeast  Level Estimated
Fri 09:46:00 AM 46.5724 107.1866 130° Southeast  Level Estimated
Fri 09:47:00 AM 46.4992 107.3123 130° Southeast  Level Estimated
Fri 09:48:00 AM 46.4259 107.4377 130° Southeast  Level Estimated
Fri 09:49:00 AM 46.3524 107.5628 130° Southeast  Level Estimated
Fri 09:50:00 AM 46.2788 107.6874 130° Southeast  Level Estimated
Fri 09:51:00 AM 46.2050 107.8118 131° Southeast  Level Estimated
Fri 09:52:00 AM 46.1311 107.9358 131° Southeast  Level Estimated
Fri 09:53:00 AM 46.0571 108.0595 131° Southeast  Level Estimated
Fri 09:54:00 AM 45.9829 108.1829 131° Southeast  Level Estimated
Fri 09:55:00 AM 45.9086 108.3059 131° Southeast  Level Estimated
Fri 09:56:00 AM 45.8342 108.4286 131° Southeast  Level Estimated
Fri 09:57:00 AM 45.7597 108.5510 131° Southeast  Level Estimated
Fri 09:58:00 AM 45.6850 108.6730 131° Southeast  Level Estimated
Fri 09:59:00 AM 45.6102 108.7947 131° Southeast  Level Estimated
Fri 10:00:00 AM 45.5352 108.9162 131° Southeast  Level Estimated
Fri 10:01:00 AM 45.4602 109.0372 131° Southeast  Level Estimated
Fri 10:02:00 AM 45.3849 109.1580 132° Southeast  Level Estimated
Fri 10:03:00 AM 45.3096 109.2784 132° Southeast  Level Estimated
Fri 10:04:00 AM 45.2342 109.3985 132° Southeast  Level Estimated
Fri 10:05:00 AM 45.1586 109.5183 132° Southeast  Level Estimated
Fri 10:06:00 AM 45.0829 109.6378 132° Southeast  Level Estimated
Fri 10:07:00 AM 45.0071 109.7569 132° Southeast  Level Estimated
Fri 10:08:00 AM 44.9311 109.8758 132° Southeast  Level Estimated
Fri 10:09:00 AM 44.8550 109.9943 132° Southeast  Level Estimated
Fri 10:10:00 AM 44.7788 110.1125 132° Southeast  Level Estimated
Fri 10:11:00 AM 44.7025 110.2304 132° Southeast  Level Estimated
Fri 10:12:00 AM 44.6261 110.3480 132° Southeast  Level Estimated
Fri 10:13:00 AM 44.5495 110.4653 132° Southeast  Level Estimated
Fri 10:14:00 AM 44.4728 110.5823 133° Southeast  Level Estimated
Fri 10:15:00 AM 44.3960 110.6989 133° Southeast  Level Estimated
Fri 10:16:00 AM 44.3191 110.8153 133° Southeast  Level Estimated
Fri 10:17:00 AM 44.2421 110.9313 133° Southeast  Level Estimated
Fri 10:18:00 AM 44.1649 111.0471 133° Southeast  Level Estimated
Fri 10:19:00 AM 44.0877 111.1625 133° Southeast  Level Estimated
Fri 10:20:00 AM 44.0103 111.2777 133° Southeast  Level Estimated
Fri 10:21:00 AM 43.9328 111.3925 133° Southeast  Level Estimated
Fri 10:22:00 AM 43.8552 111.5071 133° Southeast  Level Estimated
Fri 10:23:00 AM 43.7775 111.6213 133° Southeast  Level Estimated
Fri 10:24:00 AM 43.6996 111.7353 133° Southeast  Level Estimated
Fri 10:25:00 AM 43.6217 111.8490 133° Southeast  Level Estimated
Fri 10:26:00 AM 43.5436 111.9623 134° Southeast  Level Estimated
Fri 10:27:00 AM 43.4654 112.0754 134° Southeast  Level Estimated
Fri 10:28:00 AM 43.3871 112.1882 134° Southeast  Level Estimated
Fri 10:29:00 AM 43.3087 112.3007 134° Southeast  Level Estimated
Fri 10:30:00 AM 43.2302 112.4128 134° Southeast  Level Estimated
Fri 10:31:00 AM 43.1516 112.5248 134° Southeast  Level Estimated
Fri 10:32:00 AM 43.0729 112.6364 134° Southeast  Level Estimated
Fri 10:33:00 AM 42.9940 112.7477 134° Southeast  Level Estimated
Fri 10:34:00 AM 42.9151 112.8588 134° Southeast  Level Estimated
Fri 10:35:00 AM 42.8360 112.9695 134° Southeast  Level Estimated
Fri 10:36:00 AM 42.7569 113.0800 134° Southeast  Level Estimated
Fri 10:37:00 AM 42.6776 113.1902 134° Southeast  Level Estimated
Fri 10:38:00 AM 42.5982 113.3001 134° Southeast  Level Estimated
Fri 10:39:00 AM 42.5188 113.4098 135° Southeast  Level Estimated
Fri 10:40:00 AM 42.4392 113.5191 135° Southeast  Level Estimated
Fri 10:41:00 AM 42.3595 113.6282 135° Southeast  Level Estimated
Fri 10:42:00 AM 42.2797 113.7370 135° Southeast  Level Estimated
Fri 10:43:00 AM 42.1998 113.8455 135° Southeast  Level Estimated
Fri 10:44:00 AM 42.1198 113.9538 135° Southeast  Level Estimated
Fri 10:45:00 AM 42.0397 114.0618 135° Southeast  Level Estimated
Fri 10:46:00 AM 41.9596 114.1695 135° Southeast  Level Estimated
Fri 10:47:00 AM 41.8793 114.2769 135° Southeast  Level Estimated
Fri 10:48:00 AM 41.7989 114.3841 135° Southeast  Level Estimated
Fri 10:49:00 AM 41.7184 114.4910 135° Southeast  Level Estimated
Fri 10:50:00 AM 41.6378 114.5976 135° Southeast  Level Estimated
Fri 10:51:00 AM 41.5571 114.7040 135° Southeast  Level Estimated
Fri 10:52:00 AM 41.4763 114.8101 135° Southeast  Level Estimated
Fri 10:52:09 AM 39.9410 115.9040 136° Southeast 262 302 9,800  Level FlightAware ADS-B
Fri 10:52:42 AM 39.9110 115.9310 145° Southeast 231 266 9,700 -73 Descending FlightAware ADS-B
Fri 10:53:00 AM 41.3954 114.9159 136° Southeast  Level Estimated
Fri 10:53:31 AM 39.8750 115.9650 144° Southeast 231 266 9,700  Level FlightAware ADS-B
Fri 10:54:08 AM 39.8480 115.9910 144° Southeast 231 266 9,700  Level FlightAware ADS-B
Fri 10:54:32 AM 39.8300 116.0070 146° Southeast 231 266 9,700 -632 Level FlightAware ADS-B
Fri 10:55:24 AM 39.7790 116.0490 148° Southeast 201 231 8,900 -565 Descending FlightAware ADS-B
Fri 10:55:57 AM 39.7540 116.0710 146° Southeast 207 238 8,900  Level FlightAware ADS-B
Fri 10:56:32 AM 39.7270 116.0980 142° Southeast 210 242 8,900 -333 Level FlightAware ADS-B
Fri 10:57:09 AM 39.7200 116.1450 101° East 216 249 8,500 -822 Descending FlightAware ADS-B
Fri 10:57:45 AM 39.7180 116.1910 93° East 217 250 7,900 -545 Descending FlightAware ADS-B
Fri 10:58:15 AM 39.7160 116.2300 94° East 216 249 7,900  Level FlightAware ADS-B
Fri 10:58:50 AM 39.7160 116.2720 90° East 219 252 7,900  Level FlightAware ADS-B
Fri 10:59:29 AM 39.7210 116.3270 83° East 219 252 7,900  Level FlightAware ADS-B
Fri 11:00:04 AM 39.7250 116.3720 83° East 220 253 7,900  Level FlightAware ADS-B
Fri 11:00:38 AM 39.7280 116.4170 85° East 217 250 7,900  Level FlightAware ADS-B
Fri 11:01:22 AM 39.6970 116.4510 140° Southeast 219 252 7,900 -205 Level FlightAware ADS-B
Fri 11:02:06 AM 39.6540 116.4570 174° South 216 249 7,600 -659 Descending FlightAware ADS-B
Fri 11:02:44 AM 39.6200 116.4740 159° South 218 251 7,000 -835 Descending FlightAware ADS-B
Fri 11:03:25 AM 39.6170 116.5240 94° East 208 239 6,500 -805 Descending FlightAware ADS-B
Fri 11:04:06 AM 39.6200 116.5750 86° East 203 234 5,900 -468 Descending FlightAware ADS-B
Fri 11:04:42 AM 39.6270 116.6170 78° East 197 227 5,900  Level FlightAware ADS-B
Fri 11:05:10 AM 39.6490 116.6330 29° Northeast 195 224 5,900  Level FlightAware ADS-B
Fri 11:05:34 AM 39.6700 116.6370 North 194 223 5,900  Level FlightAware ADS-B
Fri 11:06:31 AM 39.7190 116.6290 353° North 187 215 5,900  Level FlightAware ADS-B
Fri 11:07:07 AM 39.7510 116.6240 353° North 187 215 5,900 -71 Level FlightAware ADS-B
Fri 11:07:55 AM 39.7920 116.6190 355° North 183 211 5,800 -494 Descending FlightAware ADS-B
Fri 11:08:32 AM 39.8230 116.6140 353° North 182 209 5,200 -1,029 Descending FlightAware ADS-B
Fri 11:09:05 AM 39.8500 116.6090 352° North 186 214 4,600 -1,108 Descending FlightAware ADS-B
Fri 11:09:37 AM 39.8780 116.6050 354° North 183 211 4,000 -1,082 Descending FlightAware ADS-B
Fri 11:10:06 AM 39.9010 116.6010 352° North 181 208 3,500 -957 Descending FlightAware ADS-B
Fri 11:10:46 AM 39.9320 116.5960 353° North 158 182 2,900 -896 Descending FlightAware ADS-B
Fri 11:11:13 AM 39.9510 116.5940 355° North 150 173 2,500 -436 Descending FlightAware ADS-B
Fri 11:11:41 AM 39.9670 116.5910 352° North 150 173 2,500 -786 Level FlightAware ADS-B
Fri 11:12:37 AM 40.0070 116.5850 353° North 145 167 1,400 -795 Descending FlightAware ADS-B
Fri 11:13:04 AM 40.0220 116.5820 351° North 145 167 1,400  Level FlightAware ADS-B
Fri 11:16:00 AM 40.0801 116.5846 North  Level Estimated
Fri 11:17:00 AM 40.0801 116.5846 288° West  Level Estimated
Fri 11:18:00 AM 40.0801 116.5846 288° West  Level Estimated
Fri 11:19:00 AM 40.0801 116.5846 288° West  Level Estimated
Fri 11:20:00 AM 40.0801 116.5846 288° West  Level Estimated
Fri 11:21:00 AM 40.0801 116.5846 288° West  Level Estimated
Fri 11:22:00 AM 40.0801 116.5846 288° West  Level Estimated
Fri 11:23:00 AM 40.0801 116.5846 288° West  Level Estimated
Fri 11:24:00 AM 40.0801 116.5846 288° West  Level Estimated
Fri 11:25:00 AM 40.0801 116.5846 288° West  Level Estimated
Fri 11:26:00 AM 40.0801 116.5846 288° West  Level Estimated
Fri 11:27:00 AM 40.0801 116.5846 288° West  Level Estimated
Fri 11:28:00 AM 40.0801 116.5846 288° West  Level Estimated
Fri 11:29:00 AM 40.0801 116.5846 288° West  Level Estimated
Fri 11:30:00 AM 40.0801 116.5846 288° West  Level Estimated
Fri 11:31:00 AM 40.0801 116.5846 288° West  Level Estimated
Fri 11:32:00 AM 40.0801 116.5846 288° West  Level Estimated
Fri 11:33:00 AM 40.0801 116.5846 288° West  Level Estimated
Fri 11:34:00 AM 40.0801 116.5846 288° West  Level Estimated
Fri 11:35:00 AM 40.0801 116.5846 288° West  Level Estimated
Fri 11:36:00 AM 40.0801 116.5846 288° West  Level Estimated

Login

Don't have an account? Register now (free) for customized features, flight alerts, and more!